createdAt,value
2022-10-17T00:00:22.249Z,26.38
2022-10-17T00:02:49.547Z,28.15
2022-10-17T00:05:16.843Z,26.65
2022-10-17T00:07:44.083Z,31.00
2022-10-17T00:10:11.349Z,30.25
2022-10-17T00:12:38.706Z,29.90
2022-10-17T00:15:06.950Z,27.83
2022-10-17T00:17:34.332Z,34.88
2022-10-17T00:20:03.185Z,39.50
2022-10-17T00:22:30.531Z,29.15
2022-10-17T00:24:57.892Z,34.90
2022-10-17T00:27:25.422Z,36.72
2022-10-17T00:29:53.085Z,37.72
2022-10-17T00:32:20.688Z,31.35
2022-10-17T00:34:47.939Z,33.63
2022-10-17T00:37:15.205Z,37.35
2022-10-17T00:39:42.444Z,38.60
2022-10-17T00:42:11.818Z,36.40
2022-10-17T00:44:41.792Z,32.45
2022-10-17T00:47:10.788Z,34.88
2022-10-17T00:49:39.449Z,30.90
2022-10-17T00:52:09.372Z,34.10
2022-10-17T00:57:04.344Z,37.65
2022-10-17T00:59:33.623Z,30.08
2022-10-17T01:02:02.120Z,36.78
2022-10-17T01:04:29.368Z,38.70
2022-10-17T01:06:56.590Z,38.42
2022-10-17T01:09:24.470Z,39.83
2022-10-17T01:11:56.531Z,34.13
2022-10-17T01:14:30.661Z,45.65
2022-10-17T01:17:12.210Z,34.97
2022-10-17T01:19:39.431Z,36.92
2022-10-17T01:22:09.722Z,33.45
2022-10-17T01:24:49.412Z,36.58
2022-10-17T01:27:18.998Z,37.65
2022-10-17T01:29:55.456Z,37.28
2022-10-17T01:32:29.383Z,34.65
2022-10-17T01:35:21.093Z,33.20
2022-10-17T01:38:07.793Z,37.35
2022-10-17T01:40:37.655Z,37.78
2022-10-17T01:45:48.838Z,35.05
2022-10-17T01:48:20.627Z,32.70
2022-10-17T01:50:53.386Z,37.38
2022-10-17T01:53:27.442Z,42.05
2022-10-17T01:58:34.061Z,42.08
2022-10-17T02:01:03.879Z,42.70
2022-10-17T02:06:00.672Z,41.50
2022-10-17T02:08:29.541Z,36.75
2022-10-17T02:11:05.322Z,35.53
2022-10-17T02:13:52.864Z,32.90
2022-10-17T02:16:26.279Z,38.85
2022-10-17T02:19:00.563Z,34.08
2022-10-17T02:21:45.481Z,34.83
2022-10-17T02:24:12.723Z,32.10
2022-10-17T02:26:44.065Z,36.75
2022-10-17T02:29:22.169Z,44.47
2022-10-17T02:31:55.397Z,35.95
2022-10-17T02:34:25.422Z,37.70
2022-10-17T02:36:54.584Z,35.95
2022-10-17T02:39:23.108Z,38.22
2022-10-17T02:41:51.210Z,37.45
2022-10-17T02:44:18.599Z,35.95
2022-10-17T02:46:49.168Z,33.67
2022-10-17T02:49:18.441Z,30.48
2022-10-17T02:51:53.470Z,36.40
2022-10-17T02:54:20.696Z,34.80
2022-10-17T02:56:53.874Z,33.83
2022-10-17T02:59:22.685Z,37.33
2022-10-17T03:01:52.982Z,36.00
2022-10-17T03:04:20.504Z,32.22
2022-10-17T03:06:49.613Z,35.92
2022-10-17T03:09:16.950Z,33.00
2022-10-17T03:11:44.218Z,31.83
2022-10-17T03:14:13.044Z,33.60
2022-10-17T03:16:40.371Z,35.60
2022-10-17T03:19:07.961Z,42.47
2022-10-17T03:21:37.445Z,33.08
2022-10-17T03:24:05.158Z,36.20
2022-10-17T03:26:32.521Z,37.83
2022-10-17T03:28:59.896Z,38.88
2022-10-17T03:31:27.268Z,41.53
2022-10-17T03:33:54.613Z,36.97
2022-10-17T03:36:21.920Z,31.13
2022-10-17T03:38:49.399Z,38.78
2022-10-17T03:41:16.712Z,39.35
2022-10-17T03:43:43.998Z,39.67
2022-10-17T03:46:11.332Z,43.55
2022-10-17T03:48:38.683Z,44.88
2022-10-17T03:51:07.774Z,48.80
2022-10-17T03:53:35.421Z,48.83
2022-10-17T03:56:16.544Z,46.15
2022-10-17T03:58:44.321Z,36.63
2022-10-17T04:01:13.195Z,45.97
2022-10-17T04:03:40.726Z,48.97
2022-10-17T04:06:08.780Z,44.97
2022-10-17T04:08:36.057Z,40.58
2022-10-17T04:11:04.942Z,44.90
2022-10-17T04:13:32.413Z,43.63
2022-10-17T04:16:01.272Z,40.47
2022-10-17T04:18:28.523Z,37.25
2022-10-17T04:20:55.843Z,35.22
2022-10-17T04:23:23.171Z,45.55
2022-10-17T04:25:50.647Z,41.50
2022-10-17T04:28:17.960Z,42.80
2022-10-17T04:30:47.435Z,49.70
2022-10-17T04:33:16.646Z,39.53
2022-10-17T04:35:44.618Z,48.28
2022-10-17T04:38:12.795Z,37.65
2022-10-17T04:40:41.262Z,43.63
2022-10-17T04:43:09.415Z,45.33
2022-10-17T04:45:37.388Z,43.00
2022-10-17T04:48:04.955Z,39.00
2022-10-17T04:50:33.330Z,37.33
2022-10-17T04:53:00.917Z,41.58
2022-10-17T04:55:30.010Z,38.60
2022-10-17T04:57:59.114Z,46.83
2022-10-17T05:00:27.359Z,41.67
2022-10-17T05:02:54.786Z,49.72
2022-10-17T05:05:22.091Z,43.65
2022-10-17T05:07:49.404Z,36.92
2022-10-17T05:10:16.675Z,35.10
2022-10-17T05:12:43.987Z,39.83
2022-10-17T05:15:11.341Z,40.58
2022-10-17T05:17:38.702Z,33.80
2022-10-17T05:20:06.206Z,35.40
2022-10-17T05:22:36.025Z,35.92
2022-10-17T05:25:04.525Z,37.67
2022-10-17T05:27:32.278Z,40.13
2022-10-17T05:29:59.540Z,32.35
2022-10-17T05:32:26.943Z,26.25
2022-10-17T05:34:54.404Z,35.47
2022-10-17T05:37:21.720Z,32.22
2022-10-17T05:39:51.407Z,35.47
2022-10-17T05:42:19.065Z,26.65
2022-10-17T05:44:46.456Z,28.08
2022-10-17T05:47:13.742Z,30.83
2022-10-17T05:49:46.328Z,26.15
2022-10-17T05:52:15.815Z,23.52
2022-10-17T05:54:43.211Z,19.48
2022-10-17T05:57:10.478Z,26.60
2022-10-17T05:59:37.747Z,22.80
2022-10-17T06:02:05.125Z,21.33
2022-10-17T06:04:32.480Z,23.40
2022-10-17T06:06:59.699Z,16.83
2022-10-17T06:09:27.016Z,19.08
2022-10-17T06:11:54.273Z,15.68
2022-10-17T06:14:21.834Z,15.70
2022-10-17T06:16:49.141Z,12.70
2022-10-17T06:19:16.454Z,16.65
2022-10-17T06:21:43.762Z,13.88
2022-10-17T06:24:10.994Z,12.98
2022-10-17T06:26:38.272Z,9.98
2022-10-17T06:29:05.579Z,9.63
2022-10-17T06:31:32.881Z,10.70
2022-10-17T06:34:00.204Z,10.85
2022-10-17T06:36:27.506Z,14.35
2022-10-17T06:38:54.795Z,14.60
2022-10-17T06:41:22.143Z,12.25
2022-10-17T06:43:49.453Z,11.43
2022-10-17T06:46:17.957Z,13.38
2022-10-17T06:48:45.237Z,9.65
2022-10-17T06:51:13.024Z,12.50
2022-10-17T06:53:41.152Z,13.85
2022-10-17T06:56:09.541Z,11.90
2022-10-17T06:58:39.168Z,15.07
2022-10-17T07:01:15.205Z,13.63
2022-10-17T07:03:43.710Z,11.13
2022-10-17T07:06:11.410Z,18.95
2022-10-17T07:08:38.658Z,11.85
2022-10-17T07:11:16.419Z,11.60
2022-10-17T07:13:43.810Z,12.32
2022-10-17T07:16:11.405Z,11.60
2022-10-17T07:18:38.997Z,14.25
2022-10-17T07:21:06.582Z,9.98
2022-10-17T07:23:36.636Z,11.60
2022-10-17T07:26:09.105Z,8.52
2022-10-17T07:28:37.296Z,12.38
2022-10-17T07:31:10.050Z,9.02
2022-10-17T07:33:37.432Z,10.90
2022-10-17T07:36:05.726Z,8.95
2022-10-17T07:38:33.103Z,8.00
2022-10-17T07:41:01.580Z,14.13
2022-10-17T07:43:29.300Z,8.10
2022-10-17T07:45:56.791Z,5.57
2022-10-17T07:48:25.072Z,10.93
2022-10-17T07:50:52.472Z,11.82
2022-10-17T07:53:19.807Z,11.57
2022-10-17T07:55:49.720Z,12.95
2022-10-17T08:00:44.621Z,8.05
2022-10-17T08:03:12.218Z,7.45
2022-10-17T08:05:39.522Z,9.65
2022-10-17T08:08:06.804Z,8.98
2022-10-17T08:10:34.153Z,10.35
2022-10-17T08:13:02.690Z,13.20
2022-10-17T08:15:31.899Z,11.63
2022-10-17T08:17:59.899Z,7.72
2022-10-17T08:20:27.406Z,9.07
2022-10-17T08:22:57.604Z,12.82
2022-10-17T08:25:25.133Z,11.65
2022-10-17T08:27:52.367Z,9.63
2022-10-17T08:30:19.652Z,10.98
2022-10-17T08:32:46.898Z,11.77
2022-10-17T08:35:14.885Z,9.02
2022-10-17T08:37:42.243Z,6.22
2022-10-17T08:40:15.566Z,7.95
2022-10-17T08:42:51.716Z,12.45
2022-10-17T08:45:26.851Z,7.28
2022-10-17T08:47:58.645Z,8.00
2022-10-17T08:50:39.448Z,9.95
2022-10-17T08:53:12.687Z,9.45
2022-10-17T08:55:50.290Z,9.52
2022-10-17T08:58:20.526Z,9.05
2022-10-17T09:00:51.556Z,8.88
2022-10-17T09:03:37.227Z,6.80
2022-10-17T09:06:13.561Z,11.05
2022-10-17T09:08:48.348Z,7.65
2022-10-17T09:11:45.149Z,6.18
2022-10-17T09:14:21.249Z,11.13
2022-10-17T09:16:48.516Z,6.82
2022-10-17T09:19:24.433Z,9.65
2022-10-17T09:21:54.903Z,8.82
2022-10-17T09:24:25.840Z,6.90
2022-10-17T09:26:53.626Z,5.65
2022-10-17T09:29:25.451Z,5.13
2022-10-17T09:31:59.243Z,9.77
2022-10-17T09:34:28.609Z,5.63
2022-10-17T09:36:56.128Z,6.97
2022-10-17T09:39:26.289Z,7.15
2022-10-17T09:41:55.747Z,12.43
2022-10-17T09:44:36.183Z,8.05
2022-10-17T09:47:11.134Z,4.38
2022-10-17T09:49:45.308Z,7.97
2022-10-17T09:52:17.830Z,7.47
2022-10-17T09:54:49.822Z,8.20
2022-10-17T09:57:17.932Z,6.53
2022-10-17T09:59:47.613Z,7.82
2022-10-17T10:02:14.868Z,6.85
2022-10-17T10:05:06.279Z,7.85
2022-10-17T10:07:35.394Z,6.00
2022-10-17T10:10:03.602Z,14.57
2022-10-17T10:12:35.251Z,6.95
2022-10-17T10:15:02.765Z,9.40
2022-10-17T10:17:36.083Z,6.38
2022-10-17T10:20:04.859Z,7.95
2022-10-17T10:22:32.435Z,10.70
2022-10-17T10:25:08.737Z,6.63
2022-10-17T10:27:36.456Z,4.75
2022-10-17T10:30:04.309Z,10.82
2022-10-17T10:32:35.838Z,13.90
2022-10-17T10:35:21.461Z,12.25
2022-10-17T10:37:56.390Z,6.57
2022-10-17T10:40:26.388Z,7.13
2022-10-17T10:42:55.115Z,9.70
2022-10-17T10:45:46.484Z,4.50
2022-10-17T10:48:17.481Z,6.47
2022-10-17T10:50:47.108Z,11.90
2022-10-17T10:53:14.320Z,8.25
2022-10-17T10:55:47.642Z,6.57
2022-10-17T10:58:25.264Z,11.98
2022-10-17T11:00:53.351Z,6.22
2022-10-17T11:03:24.712Z,5.40
2022-10-17T11:05:54.165Z,7.70
2022-10-17T11:08:21.498Z,8.85
2022-10-17T11:10:58.185Z,7.18
2022-10-17T11:13:29.116Z,12.50
2022-10-17T11:16:00.567Z,9.00
2022-10-17T11:18:42.963Z,4.40
2022-10-17T11:21:19.310Z,6.15
2022-10-17T11:23:55.354Z,8.48
2022-10-17T11:26:26.958Z,3.50
2022-10-17T11:28:54.914Z,8.77
2022-10-17T11:31:23.907Z,6.60
2022-10-17T11:34:09.830Z,11.13
2022-10-17T11:36:39.767Z,15.35
2022-10-17T11:39:13.337Z,7.53
2022-10-17T11:41:53.298Z,3.85
2022-10-17T11:44:25.038Z,10.23
2022-10-17T11:46:56.326Z,7.10
2022-10-17T11:52:11.942Z,6.32
2022-10-17T11:54:42.410Z,10.93
2022-10-17T11:57:42.970Z,6.90
2022-10-17T12:00:13.358Z,9.23
2022-10-17T12:02:48.954Z,3.65
2022-10-17T12:05:38.427Z,5.50
2022-10-17T12:08:28.007Z,5.10
2022-10-17T12:11:01.144Z,6.07
2022-10-17T12:13:28.915Z,7.82
2022-10-17T12:15:56.634Z,5.05
2022-10-17T12:18:30.274Z,8.82
2022-10-17T12:21:00.625Z,8.48
2022-10-17T12:23:31.898Z,8.90
2022-10-17T12:26:04.665Z,9.75
2022-10-17T12:28:33.783Z,6.68
2022-10-17T12:31:01.127Z,5.63
2022-10-17T12:33:33.360Z,7.53
2022-10-17T12:36:22.387Z,9.10
2022-10-17T12:38:50.980Z,4.45
2022-10-17T12:41:38.203Z,8.43
2022-10-17T12:44:14.709Z,7.35
2022-10-17T12:46:42.302Z,22.02
2022-10-17T12:49:28.062Z,5.00
2022-10-17T12:52:14.137Z,8.57
2022-10-17T12:54:47.958Z,7.72
2022-10-17T12:57:39.182Z,5.68
2022-10-17T13:00:15.560Z,7.68
2022-10-17T13:02:43.124Z,8.68
2022-10-17T13:05:15.456Z,5.15
2022-10-17T13:07:44.974Z,7.90
2022-10-17T13:10:23.398Z,5.68
2022-10-17T13:12:52.151Z,3.80
2022-10-17T13:15:20.294Z,7.95
2022-10-17T13:17:56.631Z,6.07
2022-10-17T13:20:29.061Z,7.53
2022-10-17T13:22:58.958Z,10.13
2022-10-17T13:25:26.846Z,17.20
2022-10-17T13:28:04.617Z,21.77
2022-10-17T13:30:33.256Z,6.90
2022-10-17T13:33:00.991Z,7.70
2022-10-17T13:35:55.385Z,8.90
2022-10-17T13:38:15.596Z,7.60
2022-10-17T13:40:50.113Z,8.95
2022-10-17T13:43:19.746Z,7.10
2022-10-17T13:45:49.338Z,8.43
2022-10-17T13:48:21.246Z,14.70
2022-10-17T13:50:50.293Z,10.43
2022-10-17T13:53:17.574Z,12.57
2022-10-17T13:56:09.486Z,9.23
2022-10-17T13:58:43.424Z,9.27
2022-10-17T14:01:11.847Z,8.98
2022-10-17T14:03:48.317Z,11.75
2022-10-17T14:06:16.362Z,8.60
2022-10-17T14:08:49.658Z,4.82
2022-10-17T14:11:21.402Z,12.60
2022-10-17T14:13:53.530Z,10.32
2022-10-17T14:16:21.174Z,13.30
2022-10-17T14:18:50.499Z,7.03
2022-10-17T14:24:29.417Z,7.68
2022-10-17T14:27:00.642Z,8.32
2022-10-17T14:29:32.158Z,4.28
2022-10-17T14:32:09.146Z,10.70
2022-10-17T14:34:37.708Z,4.65
2022-10-17T14:37:12.369Z,6.07
2022-10-17T14:39:39.991Z,8.85
2022-10-17T14:42:07.379Z,5.82
2022-10-17T14:44:36.025Z,9.25
2022-10-17T14:47:30.349Z,13.20
2022-10-17T14:49:52.948Z,9.52
2022-10-17T14:52:20.227Z,7.05
2022-10-17T14:54:48.605Z,8.70
2022-10-17T14:57:18.216Z,6.78
2022-10-17T14:59:54.646Z,10.27
2022-10-17T15:02:23.783Z,8.70
2022-10-17T15:04:51.147Z,17.02
2022-10-17T15:07:19.036Z,8.85
2022-10-17T15:09:48.194Z,21.92
2022-10-17T15:12:17.160Z,7.13
2022-10-17T15:14:45.140Z,11.93
2022-10-17T15:17:31.674Z,13.27
2022-10-17T15:19:59.179Z,8.40
2022-10-17T15:22:26.644Z,13.95
2022-10-17T15:24:54.151Z,10.45
2022-10-17T15:27:25.087Z,10.88
2022-10-17T15:29:53.196Z,4.72
2022-10-17T15:32:20.786Z,14.57
2022-10-17T15:34:48.153Z,15.80
2022-10-17T15:37:19.039Z,13.07
2022-10-17T15:39:53.339Z,5.88
2022-10-17T15:42:22.100Z,10.13
2022-10-17T15:44:51.081Z,7.85
2022-10-17T15:47:28.278Z,12.38
2022-10-17T15:49:56.540Z,11.07
2022-10-17T15:52:24.343Z,10.23
2022-10-17T15:54:51.777Z,13.95
2022-10-17T15:57:23.294Z,23.17
2022-10-17T15:59:52.343Z,23.33
2022-10-17T16:02:20.503Z,24.13
2022-10-17T16:04:50.000Z,22.70
2022-10-17T16:07:19.306Z,26.50
2022-10-17T16:09:46.755Z,25.27
2022-10-17T16:12:37.230Z,22.50
2022-10-17T16:15:04.765Z,29.63
2022-10-17T16:17:33.497Z,18.65
2022-10-17T16:20:02.230Z,41.55
2022-10-17T16:22:38.301Z,34.63
2022-10-17T16:25:12.147Z,40.95
2022-10-17T16:27:40.572Z,33.92
2022-10-17T16:30:10.868Z,39.42
2022-10-17T16:32:39.276Z,39.10
2022-10-17T16:35:07.392Z,36.85
2022-10-17T16:37:36.158Z,43.30
2022-10-17T16:40:04.563Z,48.40
2022-10-17T16:42:33.261Z,49.67
2022-10-17T16:45:02.269Z,52.70
2022-10-17T16:47:30.318Z,58.83
2022-10-17T16:49:58.287Z,49.25
2022-10-17T16:52:26.267Z,55.97
2022-10-17T16:54:55.241Z,68.18
2022-10-17T16:57:23.588Z,64.15
2022-10-17T16:59:53.303Z,66.60
2022-10-17T17:02:21.638Z,74.95
2022-10-17T17:04:49.173Z,61.80
2022-10-17T17:07:18.647Z,74.50
2022-10-17T17:09:46.187Z,64.13
2022-10-17T17:12:13.530Z,63.05
2022-10-17T17:14:40.968Z,62.20
2022-10-17T17:17:15.352Z,56.03
2022-10-17T17:19:52.100Z,48.38
2022-10-17T17:22:19.594Z,52.33
2022-10-17T17:27:21.949Z,42.90
2022-10-17T17:29:51.300Z,38.13
2022-10-17T17:32:18.587Z,39.90
2022-10-17T17:34:45.871Z,37.13
2022-10-17T17:37:13.351Z,37.20
2022-10-17T17:39:40.839Z,39.75
2022-10-17T17:42:09.162Z,39.70
2022-10-17T17:44:36.476Z,32.47
2022-10-17T17:47:03.811Z,34.78
2022-10-17T17:49:32.363Z,27.80
2022-10-17T17:51:59.795Z,26.00
2022-10-17T17:54:27.220Z,29.15
2022-10-17T17:56:56.307Z,37.15
2022-10-17T17:59:23.602Z,28.67
2022-10-17T18:01:51.087Z,43.33
2022-10-17T18:04:18.710Z,31.38
2022-10-17T18:06:46.088Z,28.58
2022-10-17T18:09:13.388Z,23.70
2022-10-17T18:11:42.108Z,20.60
2022-10-17T18:14:13.766Z,17.60
2022-10-17T18:16:41.333Z,18.33
2022-10-17T18:19:09.762Z,18.25
2022-10-17T18:21:37.490Z,17.80
2022-10-17T18:24:05.007Z,14.25
2022-10-17T18:26:32.330Z,11.00
2022-10-17T18:29:00.002Z,11.57
2022-10-17T18:31:35.799Z,9.70
2022-10-17T18:34:06.468Z,10.45
2022-10-17T18:36:34.606Z,10.38
2022-10-17T18:39:03.623Z,8.68
2022-10-17T18:41:35.279Z,9.67
2022-10-17T18:44:05.278Z,7.85
2022-10-17T18:49:01.709Z,8.13
2022-10-17T18:51:29.160Z,8.80
2022-10-17T18:53:58.981Z,6.43
2022-10-17T18:56:29.939Z,9.82
2022-10-17T18:58:57.761Z,7.18
2022-10-17T19:01:28.492Z,5.82
2022-10-17T19:03:57.450Z,5.18
2022-10-17T19:06:32.161Z,7.07
2022-10-17T19:09:00.675Z,6.55
2022-10-17T19:11:29.295Z,8.10
2022-10-17T19:13:57.875Z,7.57
2022-10-17T19:16:26.782Z,5.28
2022-10-17T19:18:58.207Z,8.60
2022-10-17T19:21:25.840Z,7.47
2022-10-17T19:23:54.283Z,7.93
2022-10-17T19:26:22.253Z,8.00
2022-10-17T19:28:52.246Z,8.52
2022-10-17T19:31:26.235Z,10.30
2022-10-17T19:33:54.291Z,9.88
2022-10-17T19:36:22.356Z,10.57
2022-10-17T19:38:50.007Z,9.82
2022-10-17T19:41:17.512Z,8.63
2022-10-17T19:43:45.133Z,7.05
2022-10-17T19:46:16.435Z,7.78
2022-10-17T19:48:44.073Z,10.02
2022-10-17T19:51:12.819Z,9.45
2022-10-17T19:53:40.373Z,10.75
2022-10-17T19:56:09.025Z,10.95
2022-10-17T19:58:44.240Z,8.93
2022-10-17T20:01:18.083Z,12.07
2022-10-17T20:03:45.514Z,11.43
2022-10-17T20:06:13.242Z,11.13
2022-10-17T20:08:40.856Z,7.22
2022-10-17T20:11:09.728Z,10.88
2022-10-17T20:13:37.593Z,12.95
2022-10-17T20:16:05.486Z,9.25
2022-10-17T20:18:32.979Z,10.90
2022-10-17T20:21:08.551Z,9.10
2022-10-17T20:23:35.817Z,8.18
2022-10-17T20:26:08.654Z,7.35
2022-10-17T20:28:46.899Z,6.15
2022-10-17T20:31:14.836Z,7.18
2022-10-17T20:33:42.090Z,6.88
2022-10-17T20:36:10.294Z,9.45
2022-10-17T20:38:37.598Z,7.95
2022-10-17T20:41:06.120Z,9.43
2022-10-17T20:43:33.838Z,14.70
2022-10-17T20:46:09.690Z,9.20
2022-10-17T20:48:51.634Z,10.02
2022-10-17T20:51:18.967Z,8.93
2022-10-17T20:53:46.401Z,9.23
2022-10-17T20:56:21.345Z,9.15
2022-10-17T20:58:52.573Z,8.05
2022-10-17T21:01:20.784Z,6.65
2022-10-17T21:03:48.530Z,7.28
2022-10-17T21:06:16.194Z,6.05
2022-10-17T21:08:43.453Z,9.05
2022-10-17T21:11:18.202Z,7.75
2022-10-17T21:13:45.976Z,7.07
2022-10-17T21:16:14.610Z,9.07
2022-10-17T21:18:42.376Z,7.25
2022-10-17T21:21:12.395Z,3.53
2022-10-17T21:23:42.300Z,5.15
2022-10-17T21:28:38.182Z,2.83
2022-10-17T21:31:09.503Z,6.50
2022-10-17T21:33:36.785Z,5.93
2022-10-17T21:36:04.293Z,3.63
2022-10-17T21:38:31.633Z,10.48
2022-10-17T21:40:58.877Z,5.13
2022-10-17T21:43:26.181Z,6.00
2022-10-17T21:45:53.440Z,6.45
2022-10-17T21:48:20.738Z,9.60
2022-10-17T21:50:47.993Z,6.43
2022-10-17T21:53:15.332Z,4.45
2022-10-17T21:55:42.627Z,5.40
2022-10-17T21:58:09.955Z,7.55
2022-10-17T22:00:37.301Z,5.70
2022-10-17T22:03:05.938Z,4.85
2022-10-17T22:05:33.259Z,7.55
2022-10-17T22:08:00.557Z,6.03
2022-10-17T22:10:27.863Z,5.63
2022-10-17T22:12:55.118Z,7.05
2022-10-17T22:15:22.951Z,6.65
2022-10-17T22:17:50.217Z,7.25
2022-10-17T22:20:17.538Z,7.25
2022-10-17T22:22:44.798Z,10.20
2022-10-17T22:25:12.121Z,5.57
2022-10-17T22:27:39.388Z,10.30
2022-10-17T22:30:06.955Z,6.20
2022-10-17T22:32:34.219Z,7.35
2022-10-17T22:35:01.562Z,8.57
2022-10-17T22:37:29.134Z,7.60
2022-10-17T22:39:56.565Z,8.48
2022-10-17T22:42:23.909Z,4.93
2022-10-17T22:44:51.253Z,7.55
2022-10-17T22:47:18.531Z,6.72
2022-10-17T22:49:45.796Z,8.75
2022-10-17T22:52:13.106Z,8.68
2022-10-17T22:54:40.523Z,5.78
2022-10-17T22:57:07.790Z,13.57
2022-10-17T22:59:35.092Z,9.27
2022-10-17T23:02:02.420Z,6.43
2022-10-17T23:04:29.754Z,6.57
2022-10-17T23:06:57.060Z,7.53
2022-10-17T23:09:24.357Z,13.15
2022-10-17T23:11:51.683Z,9.60
2022-10-17T23:14:18.959Z,10.50
2022-10-17T23:16:46.362Z,13.43
2022-10-17T23:19:13.654Z,10.75
2022-10-17T23:21:41.324Z,8.43
2022-10-17T23:24:08.683Z,7.28
2022-10-17T23:26:36.006Z,11.48
2022-10-17T23:29:03.406Z,9.38
2022-10-17T23:31:30.823Z,7.68
2022-10-17T23:33:59.321Z,12.43
2022-10-17T23:36:26.682Z,13.18
2022-10-17T23:38:56.468Z,8.48
2022-10-17T23:41:25.816Z,9.45
2022-10-17T23:43:53.166Z,10.57
2022-10-17T23:46:20.505Z,9.90
2022-10-17T23:48:47.759Z,7.85
2022-10-17T23:51:15.147Z,12.02
2022-10-17T23:53:42.484Z,12.38
2022-10-17T23:56:11.445Z,10.20
2022-10-17T23:58:40.089Z,12.63
